Averill Park, New York
Current Conditions -  °F | °C
As of 6:51 AM on Saturday 01 Nov 2014 (Local Time) from KALB Reporting Station
Overcast Overcast  
Wind Chill: 33°   Ceiling: 18000
Heat Index: 40°   Visibility: 10mi
Dew Point: 31°   Wind: 10mph
Humidity: 70%   Direction: 20°NNE
Pressure: 29.97"   Gusts: NA
Location:  42.64°N, 73.55°W
Report Text: KALB 011051Z 02009KT 10SM SCT065 BKN180 OVC230 04/M01 A2997 RMK AO2 SLP148 T00441006
Loading
Personal Weather Stations






























Interactive Weather Map
Tropical Storm Tracking
New forecast layout! Learn more

10-Day Weather Forecast

Advertisements
Track Severe Weather on mobile